Time;durP1;ratioP1;P1;durP2;ratioP2;P2;SDS_P1;SDS_P2;PMS_P1;PMS_P2;Temp;Humidity;BMP_temperature;BMP_pressure;BME280_temperature;BME280_humidity;BME280_pressure;Samples;Min_cycle;Max_cycle;Signal;HPM_P1;HPM_P2
2022/05/17 00:00:37;;;;;;;15.55;4.05;;;;;;;15.49;83.24;101907.09;4996540;28;20032;-74
2022/05/17 00:03:03;;;;;;;17.10;4.00;;;;;;;15.47;82.32;101904.69;5013859;28;20032;-74
2022/05/17 00:05:28;;;;;;;15.43;4.18;;;;;;;15.33;82.58;101903.00;5014202;28;20026;-73
2022/05/17 00:07:54;;;;;;;13.57;4.47;;;;;;;15.27;83.08;101899.34;5014106;28;20083;-74
2022/05/17 00:10:21;;;;;;;16.60;4.28;;;;;;;15.34;83.16;101908.03;5013655;28;20028;-74
2022/05/17 00:12:50;;;;;;;19.00;4.18;;;;;;;15.33;83.39;101906.44;4995668;28;20022;-74
2022/05/17 00:15:16;;;;;;;16.75;3.90;;;;;;;15.17;83.74;101911.91;5013699;28;20041;-73
2022/05/17 00:17:42;;;;;;;14.52;4.03;;;;;;;15.22;84.01;101912.16;5013337;28;20093;-73
2022/05/17 00:20:08;;;;;;;11.90;4.32;;;;;;;15.12;84.36;101911.69;5013474;28;20601;-73
2022/05/17 00:22:34;;;;;;;16.55;4.20;;;;;;;15.20;84.26;101913.34;5013660;28;20029;-73
2022/05/17 00:25:00;;;;;;;12.10;3.65;;;;;;;15.09;85.20;101910.25;5013503;28;20389;-73
2022/05/17 00:27:25;;;;;;;11.18;3.72;;;;;;;15.11;85.05;101905.66;5013488;28;20034;-73
2022/05/17 00:29:50;;;;;;;14.90;4.22;;;;;;;15.07;84.84;101899.22;5013481;28;20021;-73
2022/05/17 00:32:15;;;;;;;12.63;3.90;;;;;;;15.19;85.17;101904.72;5013454;28;20366;-74
2022/05/17 00:34:41;;;;;;;14.50;3.72;;;;;;;15.18;84.65;101900.50;4995832;28;20044;-74
2022/05/17 00:37:06;;;;;;;13.23;3.80;;;;;;;15.15;84.60;101894.88;5013392;28;20033;-74
2022/05/17 00:39:32;;;;;;;11.82;3.75;;;;;;;15.20;84.75;101903.72;5013331;28;20022;-73
2022/05/17 00:41:58;;;;;;;12.95;4.13;;;;;;;15.19;84.34;101909.09;4996015;28;20362;-74
2022/05/17 00:47:30;;;;;;;13.20;3.80;;;;;;;15.31;83.83;101911.00;5013673;28;20118;-73
2022/05/17 00:50:12;;;;;;;14.63;3.90;;;;;;;15.17;84.16;101913.72;5013244;28;20030;-73
2022/05/17 00:52:48;;;;;;;10.18;3.83;;;;;;;15.22;84.67;101911.34;5013408;28;20077;-73
2022/05/17 00:55:37;;;;;;;15.02;4.10;;;;;;;15.26;83.91;101909.97;5013458;28;20116;-73
2022/05/17 00:58:23;;;;;;;12.52;3.75;;;;;;;15.17;84.66;101914.53;5013234;28;20101;-72
2022/05/17 01:01:02;;;;;;;15.10;3.60;;;;;;;15.22;84.35;101906.13;5013181;28;20497;-73
2022/05/17 01:03:34;;;;;;;12.77;3.53;;;;;;;15.20;84.17;101902.94;5013173;28;20080;-73
2022/05/17 01:06:01;;;;;;;13.65;3.72;;;;;;;15.20;84.32;101903.72;5013172;28;20025;-73
2022/05/17 01:08:28;;;;;;;11.60;3.90;;;;;;;15.20;84.45;101898.53;4995474;28;20026;-72
2022/05/17 01:10:53;;;;;;;14.40;3.75;;;;;;;15.21;84.61;101905.31;5012973;28;20397;-72
2022/05/17 01:16:06;;;;;;;12.27;3.88;;;;;;;15.09;84.99;101905.03;5012937;28;20042;-72
2022/05/17 01:18:36;;;;;;;12.82;3.72;;;;;;;15.12;84.72;101909.06;5013011;28;20034;-72
2022/05/17 01:21:02;;;;;;;13.32;3.75;;;;;;;15.10;85.21;101904.06;4995396;28;20029;-72
2022/05/17 01:23:28;;;;;;;9.52;3.80;;;;;;;15.12;85.58;101899.47;5013305;28;20044;-72
2022/05/17 01:25:53;;;;;;;12.38;3.70;;;;;;;15.11;85.03;101905.66;5015412;28;20025;-72
2022/05/17 01:28:25;;;;;;;14.95;3.80;;;;;;;15.14;85.54;101907.09;4998971;28;20105;-73
2022/05/17 01:30:51;;;;;;;16.67;3.90;;;;;;;15.08;85.21;101900.03;5017248;28;20105;-73
2022/05/17 01:33:18;;;;;;;16.73;4.22;;;;;;;15.14;85.03;101909.69;4998907;28;20548;-73
2022/05/17 01:35:44;;;;;;;11.05;3.60;;;;;;;15.09;85.53;101905.03;4998868;28;20366;-74
2022/05/17 01:38:10;;;;;;;9.07;3.80;;;;;;;15.08;85.42;101902.66;4998841;28;20026;-74
2022/05/17 01:40:38;;;;;;;18.05;3.80;;;;;;;15.06;85.49;101908.03;5016396;28;20033;-73
2022/05/17 01:43:04;;;;;;;10.60;3.83;;;;;;;14.98;86.18;101909.97;5016478;28;20072;-73
2022/05/17 01:45:29;;;;;;;16.20;4.00;;;;;;;15.00;85.65;101905.38;5016988;28;20366;-73
2022/05/17 01:47:55;;;;;;;13.40;4.20;;;;;;;15.03;85.97;101913.63;4998845;28;20026;-73
2022/05/17 01:50:21;;;;;;;12.57;3.90;;;;;;;14.94;86.57;101914.75;5016282;28;20480;-73
2022/05/17 01:52:47;;;;;;;12.10;4.00;;;;;;;14.95;86.51;101908.53;4998442;28;20385;-73
2022/05/17 01:55:12;;;;;;;14.98;4.05;;;;;;;14.99;86.02;101907.19;4998524;28;20025;-73
2022/05/17 01:57:37;;;;;;;8.38;3.50;;;;;;;14.96;85.57;101914.53;5016283;28;20497;-73
2022/05/17 02:00:09;;;;;;;12.20;3.70;;;;;;;14.78;86.64;101917.59;5016071;28;20037;-73
2022/05/17 02:02:36;;;;;;;13.57;4.40;;;;;;;14.60;86.92;101916.25;4998458;28;20075;-73
2022/05/17 02:05:02;;;;;;;18.92;3.95;;;;;;;14.58;87.71;101915.63;5016030;28;20092;-74
2022/05/17 02:07:28;;;;;;;10.93;3.50;;;;;;;14.71;87.17;101914.94;5015892;28;20017;-73
2022/05/17 02:09:53;;;;;;;11.95;4.28;;;;;;;14.71;87.43;101920.16;4998124;28;20555;-73
2022/05/17 02:12:18;;;;;;;10.30;4.25;;;;;;;14.71;87.17;101916.75;5016020;28;20029;-73
2022/05/17 02:14:44;;;;;;;13.10;4.35;;;;;;;14.72;87.02;101913.16;4998167;28;20104;-72
2022/05/17 02:17:09;;;;;;;9.88;3.95;;;;;;;14.76;87.15;101916.97;5014563;28;20378;-73
2022/05/17 02:19:35;;;;;;;9.35;4.10;;;;;;;14.66;87.30;101925.91;4998620;28;20049;-73
2022/05/17 02:22:01;;;;;;;16.25;4.07;;;;;;;14.62;87.70;101914.28;4998032;28;20048;-73
2022/05/17 02:24:27;;;;;;;15.35;4.65;;;;;;;14.70;87.99;101925.53;4997869;28;20080;-73
2022/05/17 02:26:53;;;;;;;15.45;4.50;;;;;;;14.75;87.17;101934.38;4981875;28;20397;-73
2022/05/17 02:29:19;;;;;;;11.63;4.30;;;;;;;14.73;87.21;101933.78;5015467;28;20026;-73
2022/05/17 02:31:44;;;;;;;17.90;4.60;;;;;;;14.74;86.98;101932.00;5015551;28;20025;-73
2022/05/17 02:34:09;;;;;;;12.77;4.38;;;;;;;14.74;87.35;101937.19;5015035;28;20440;-73
2022/05/17 02:36:34;;;;;;;11.43;4.53;;;;;;;14.61;87.69;101924.84;4997799;28;20123;-73
2022/05/17 02:39:00;;;;;;;14.40;4.90;;;;;;;14.45;88.50;101920.69;5015436;28;20030;-73
2022/05/17 02:41:25;;;;;;;16.75;4.38;;;;;;;14.61;88.25;101937.84;5015317;28;20028;-73
2022/05/17 02:43:51;;;;;;;8.45;4.32;;;;;;;14.58;87.81;101941.63;4997462;28;20605;-73
2022/05/17 02:46:16;;;;;;;19.38;4.95;;;;;;;14.45;88.51;101934.47;5015092;28;20030;-73
2022/05/17 02:48:42;;;;;;;10.13;4.30;;;;;;;14.41;88.67;101951.44;4998432;28;20116;-73
2022/05/17 02:51:21;;;;;;;10.00;3.95;;;;;;;14.24;88.05;101952.63;5015103;28;20037;-73
2022/05/17 02:53:46;;;;;;;10.25;3.70;;;;;;;14.16;87.74;101955.34;4997252;28;20125;-73
2022/05/17 02:56:12;;;;;;;12.05;3.88;;;;;;;13.97;87.25;101956.72;4997379;28;20156;-73
2022/05/17 02:58:38;;;;;;;10.73;4.00;;;;;;;13.85;88.21;101958.97;5014933;28;20030;-73
2022/05/17 03:01:04;;;;;;;12.70;4.10;;;;;;;13.80;88.36;101950.88;4997252;28;20029;-73
2022/05/17 03:03:31;;;;;;;10.85;3.40;;;;;;;13.75;88.20;101946.25;5014874;28;20469;-73
2022/05/17 03:05:57;;;;;;;9.68;4.20;;;;;;;13.77;88.59;101946.84;5014834;28;20052;-73
2022/05/17 03:08:22;;;;;;;11.70;4.03;;;;;;;13.73;88.67;101947.41;4997030;28;20041;-73
2022/05/17 03:10:48;;;;;;;10.15;3.80;;;;;;;13.69;88.68;101951.34;4997075;28;20032;-73
2022/05/17 03:13:14;;;;;;;11.07;4.00;;;;;;;13.74;88.32;101946.41;5014561;28;20052;-72
2022/05/17 03:15:40;;;;;;;11.48;4.65;;;;;;;13.75;89.58;101942.81;5014593;28;20492;-73
2022/05/17 03:18:06;;;;;;;12.10;3.97;;;;;;;13.89;89.03;101947.22;5014574;28;20054;-73
2022/05/17 03:20:31;;;;;;;10.75;4.20;;;;;;;13.98;89.18;101946.16;4997154;28;20468;-73
2022/05/17 03:22:57;;;;;;;9.23;4.00;;;;;;;14.13;89.08;101953.94;5014438;28;20038;-73
2022/05/17 03:25:23;;;;;;;12.30;4.28;;;;;;;14.12;88.68;101947.09;5014320;28;20477;-74
2022/05/17 03:27:52;;;;;;;15.25;4.78;;;;;;;14.17;88.71;101946.56;5014498;28;20029;-73
2022/05/17 03:30:17;;;;;;;13.77;4.32;;;;;;;14.12;88.93;101935.91;4996790;28;20053;-73
2022/05/17 03:32:43;;;;;;;10.95;4.25;;;;;;;14.04;88.94;101939.41;4996698;28;20018;-73
2022/05/17 03:35:09;;;;;;;10.60;4.30;;;;;;;13.95;88.95;101938.72;5014185;28;20061;-73
2022/05/17 03:37:35;;;;;;;7.95;3.75;;;;;;;13.93;88.65;101952.88;5014198;28;20026;-73
2022/05/17 03:40:00;;;;;;;9.80;3.80;;;;;;;13.78;88.19;101926.88;5014358;28;20121;-73
2022/05/17 03:42:26;;;;;;;11.50;4.15;;;;;;;13.94;88.61;101944.88;4996520;28;20493;-73
2022/05/17 03:44:51;;;;;;;9.93;3.88;;;;;;;13.95;87.79;101948.28;4996507;28;20021;-73
2022/05/17 03:47:16;;;;;;;8.95;3.47;;;;;;;13.88;87.04;101935.22;4995640;28;20033;-73
2022/05/17 03:49:42;;;;;;;10.18;3.80;;;;;;;13.97;87.04;101957.50;5014062;28;20030;-73
2022/05/17 03:52:08;;;;;;;10.15;3.72;;;;;;;14.00;87.00;101961.53;5013956;28;20030;-73
2022/05/17 03:54:34;;;;;;;8.00;3.55;;;;;;;14.03;87.41;101963.78;5014068;28;20022;-73
2022/05/17 03:57:00;;;;;;;10.48;3.50;;;;;;;14.10;87.00;101958.69;5013932;28;20025;-74
2022/05/17 03:59:25;;;;;;;9.15;3.65;;;;;;;14.14;85.84;101959.91;4996207;28;20362;-73
2022/05/17 04:01:50;;;;;;;6.68;3.45;;;;;;;14.14;85.48;101963.31;5013862;28;20117;-73
2022/05/17 04:04:16;;;;;;;8.95;3.70;;;;;;;14.18;85.55;101963.75;4996154;28;20516;-73
2022/05/17 04:06:41;;;;;;;7.78;3.42;;;;;;;14.15;85.71;101962.31;5013798;28;20034;-74
2022/05/17 04:09:07;;;;;;;8.05;3.50;;;;;;;14.16;86.12;101961.34;5013692;28;20465;-74
2022/05/17 04:11:34;;;;;;;8.10;3.88;;;;;;;14.23;86.00;101964.81;5013704;28;20030;-74
2022/05/17 04:13:59;;;;;;;9.90;3.80;;;;;;;14.23;85.93;101966.63;4995977;28;20018;-72
2022/05/17 04:16:24;;;;;;;10.82;4.07;;;;;;;14.32;86.80;101962.13;5013535;28;20112;-73
2022/05/17 04:18:50;;;;;;;8.70;3.72;;;;;;;14.43;85.55;101964.25;5012291;28;20088;-72
2022/05/17 04:21:15;;;;;;;9.07;4.10;;;;;;;14.45;85.08;101934.47;5013560;28;20029;-73
2022/05/17 04:23:41;;;;;;;8.55;3.90;;;;;;;14.59;84.57;101951.06;4995889;28;20470;-73
2022/05/17 04:26:07;;;;;;;10.90;4.10;;;;;;;14.72;84.46;101954.78;5013473;28;20024;-73
2022/05/17 04:28:32;;;;;;;9.55;4.57;;;;;;;14.69;84.42;101949.94;5013430;28;20029;-73
2022/05/17 04:30:58;;;;;;;10.63;4.35;;;;;;;14.73;85.25;101953.78;5013432;28;20022;-72
2022/05/17 04:33:24;;;;;;;11.93;4.10;;;;;;;14.80;85.43;101959.88;5013426;28;20025;-72
2022/05/17 04:35:49;;;;;;;9.07;4.28;;;;;;;14.75;85.90;101964.81;4996034;28;20116;-72
2022/05/17 04:38:15;;;;;;;10.10;4.80;;;;;;;14.79;85.82;101971.28;5013347;28;20381;-72
2022/05/17 04:40:41;;;;;;;10.60;4.10;;;;;;;14.77;85.78;101976.66;4995693;28;20026;-72
2022/05/17 04:43:08;;;;;;;11.00;4.75;;;;;;;14.89;85.54;101985.56;4995494;28;20026;-72
2022/05/17 04:45:34;;;;;;;9.05;4.78;;;;;;;14.89;85.35;101985.56;5013361;28;20393;-74
2022/05/17 04:48:02;;;;;;;15.80;4.15;;;;;;;14.99;86.41;101989.66;5020607;28;20030;-74
2022/05/17 04:50:28;;;;;;;11.88;4.70;;;;;;;15.08;86.71;101998.97;4997071;28;20397;-73
2022/05/17 04:52:53;;;;;;;13.10;4.82;;;;;;;15.21;86.53;101993.84;5013324;28;20028;-73
2022/05/17 04:55:20;;;;;;;12.15;4.57;;;;;;;15.23;86.76;101999.69;4995817;28;20037;-73
2022/05/17 04:57:46;;;;;;;12.55;4.70;;;;;;;15.26;86.29;101996.72;5017276;28;20030;-76
2022/05/17 05:00:23;;;;;;;10.23;4.38;;;;;;;15.34;86.79;102004.38;5019424;28;20092;-73
2022/05/17 05:02:48;;;;;;;10.20;4.72;;;;;;;15.43;85.87;101999.06;5018146;28;20022;-73
2022/05/17 05:05:15;;;;;;;11.43;5.05;;;;;;;15.63;84.75;102002.59;5005603;28;20048;-75
2022/05/17 05:07:41;;;;;;;11.80;5.07;;;;;;;15.60;85.34;102005.59;5018885;28;20038;-73
2022/05/17 05:10:06;;;;;;;12.07;4.95;;;;;;;15.73;85.69;102002.28;5017488;28;20087;-73
2022/05/17 05:12:33;;;;;;;12.75;5.32;;;;;;;15.87;83.92;102006.56;5016874;28;20065;-74
2022/05/17 05:14:59;;;;;;;13.30;4.78;;;;;;;15.73;83.91;102003.06;5017243;28;20091;-73
2022/05/17 05:17:25;;;;;;;10.82;4.72;;;;;;;15.83;83.73;102015.78;4983269;28;20517;-73
2022/05/17 05:19:50;;;;;;;14.25;5.30;;;;;;;15.86;83.83;102015.41;5016944;28;20053;-73
2022/05/17 05:22:15;;;;;;;12.05;5.20;;;;;;;15.84;84.80;102020.00;4999636;28;20385;-73
2022/05/17 05:24:40;;;;;;;11.23;4.93;;;;;;;15.96;83.69;102020.25;5015444;28;20034;-73
2022/05/17 05:27:06;;;;;;;12.27;5.28;;;;;;;15.98;83.90;102021.69;5016721;28;20024;-74
2022/05/17 05:29:31;;;;;;;11.60;4.97;;;;;;;15.98;84.44;102026.88;4999175;28;20033;-73
2022/05/17 05:31:56;;;;;;;14.40;5.13;;;;;;;15.98;84.17;102018.25;5017055;28;20496;-73
2022/05/17 05:34:22;;;;;;;9.68;4.68;;;;;;;16.08;83.29;102021.31;4998944;28;20022;-74
2022/05/17 05:36:47;;;;;;;9.88;4.30;;;;;;;16.14;82.53;102024.94;4998873;28;20111;-73
2022/05/17 05:39:15;;;;;;;15.63;4.68;;;;;;;16.03;83.59;102010.69;4998826;28;20026;-73
2022/05/17 05:41:40;;;;;;;9.68;4.80;;;;;;;16.07;83.66;102018.91;5016730;28;20501;-73
2022/05/17 05:44:05;;;;;;;9.43;4.43;;;;;;;16.10;83.50;102011.50;5016234;28;20115;-73
2022/05/17 05:46:30;;;;;;;9.82;4.03;;;;;;;16.11;83.45;102014.91;5016181;28;20038;-73
2022/05/17 05:48:56;;;;;;;12.88;4.40;;;;;;;16.09;84.01;102017.72;5016361;28;20022;-73
2022/05/17 05:51:21;;;;;;;11.55;4.30;;;;;;;16.16;84.53;102022.97;4998845;28;20022;-73
2022/05/17 05:53:46;;;;;;;13.10;4.45;;;;;;;16.18;84.59;102031.41;5016217;28;20028;-74
2022/05/17 05:56:12;;;;;;;8.93;4.30;;;;;;;16.26;84.13;102033.06;5016117;28;20473;-74
2022/05/17 05:58:39;;;;;;;9.45;3.78;;;;;;;16.30;83.00;102039.47;5016221;28;20046;-73
2022/05/17 06:01:05;;;;;;;13.40;4.00;;;;;;;16.42;83.29;102033.50;5015964;28;20025;-73
2022/05/17 06:03:32;;;;;;;7.78;3.83;;;;;;;16.29;82.09;102030.06;5019002;28;20539;-75
2022/05/17 06:05:57;;;;;;;10.40;3.53;;;;;;;16.47;80.78;102027.72;5001850;28;20032;-73
2022/05/17 06:08:23;;;;;;;10.10;3.33;;;;;;;16.50;79.37;102029.94;5014661;28;20041;-73
2022/05/17 06:10:48;;;;;;;10.88;3.38;;;;;;;16.69;78.95;102036.22;5015646;28;20469;-73
2022/05/17 06:13:16;;;;;;;7.35;3.03;;;;;;;16.58;78.89;102026.34;4998800;28;20034;-73
2022/05/17 06:15:42;;;;;;;10.27;2.70;;;;;;;16.67;78.74;102033.00;5001179;28;20033;-75
2022/05/17 06:18:08;;;;;;;8.68;3.03;;;;;;;16.76;78.05;102034.44;5016792;28;20571;-73
2022/05/17 06:20:35;;;;;;;10.02;2.92;;;;;;;16.88;77.20;102034.66;5017199;28;20025;-74
2022/05/17 06:23:01;;;;;;;13.98;3.08;;;;;;;16.94;76.64;102036.47;4999366;28;20072;-72
2022/05/17 06:25:26;;;;;;;13.65;3.00;;;;;;;17.19;75.38;102039.34;4998283;28;20409;-72
2022/05/17 06:27:52;;;;;;;14.55;3.40;;;;;;;17.35;74.68;102032.94;5015599;28;20096;-73
2022/05/17 06:30:17;;;;;;;10.40;2.92;;;;;;;17.28;74.18;102013.81;4998381;28;20033;-73
2022/05/17 06:32:43;;;;;;;11.70;3.00;;;;;;;17.48;74.20;102027.69;5015389;28;20018;-73
2022/05/17 06:35:10;;;;;;;10.52;2.88;;;;;;;17.42;74.25;102015.41;4999657;28;20034;-75
2022/05/17 06:37:37;;;;;;;15.32;2.92;;;;;;;17.21;74.14;102026.09;4997910;28;20053;-73
2022/05/17 06:40:03;;;;;;;11.88;2.85;;;;;;;17.09;74.39;102016.25;5015415;28;20034;-74
2022/05/17 06:42:29;;;;;;;12.57;2.88;;;;;;;17.16;74.44;102021.47;5021183;28;20038;-74
2022/05/17 06:44:54;;;;;;;12.82;2.90;;;;;;;17.23;73.76;102021.44;4999525;28;20029;-73
2022/05/17 06:47:20;;;;;;;9.93;2.88;;;;;;;17.31;73.09;102029.88;5021128;28;20032;-77
2022/05/17 06:49:47;;;;;;;12.93;2.88;;;;;;;17.58;73.27;102038.53;5009829;28;20029;-75
2022/05/17 06:52:13;;;;;;;7.55;2.75;;;;;;;17.49;73.95;102044.16;5026480;28;20120;-74
2022/05/17 06:54:40;;;;;;;9.52;2.53;;;;;;;17.61;73.55;102053.00;5018083;28;20057;-73
2022/05/17 06:57:07;;;;;;;9.25;2.80;;;;;;;17.51;73.96;102057.84;5014919;28;20036;-73
2022/05/17 06:59:34;;;;;;;13.73;3.30;;;;;;;17.28;74.47;102056.41;4996373;28;20499;-73
2022/05/17 07:02:00;;;;;;;8.73;3.05;;;;;;;17.27;75.17;102065.28;4997182;28;20107;-72
2022/05/17 07:04:29;;;;;;;7.95;3.33;;;;;;;17.28;74.33;102060.84;4997275;28;20061;-72
2022/05/17 07:06:58;;;;;;;11.02;3.30;;;;;;;17.34;74.82;102060.03;4997096;28;20393;-72
2022/05/17 07:09:24;;;;;;;9.85;3.35;;;;;;;17.47;75.54;102051.41;5014866;28;20021;-72
2022/05/17 07:14:37;;;;;;;10.88;3.55;;;;;;;17.17;77.53;102036.09;5014867;28;20508;-73
2022/05/17 07:17:10;;;;;;;10.27;3.20;;;;;;;17.05;77.24;102040.31;5014213;28;20050;-73
2022/05/17 07:19:35;;;;;;;12.60;3.35;;;;;;;17.13;77.01;102040.94;4997248;28;20458;-72
2022/05/17 07:22:01;;;;;;;14.57;2.83;;;;;;;17.19;75.68;102039.34;4996825;28;20057;-70
2022/05/17 07:24:29;;;;;;;13.70;3.00;;;;;;;17.10;74.71;102054.41;4997319;28;20115;-71
2022/05/17 07:26:55;;;;;;;11.68;2.83;;;;;;;17.30;75.87;102070.09;4996907;28;20428;-71
2022/05/17 07:29:20;;;;;;;9.75;2.67;;;;;;;17.16;76.02;102058.03;5014679;28;20025;-71
2022/05/17 07:31:45;;;;;;;9.60;3.05;;;;;;;17.23;76.28;102058.81;5014270;28;20029;-72
2022/05/17 07:34:12;;;;;;;10.63;2.80;;;;;;;17.16;75.42;102072.91;4996668;28;20040;-73
2022/05/17 07:36:38;;;;;;;11.40;2.90;;;;;;;17.32;75.85;102059.44;4997090;28;20481;-73
2022/05/17 07:39:03;;;;;;;11.00;2.75;;;;;;;17.23;75.41;102069.25;5013014;28;20022;-73
2022/05/17 07:41:28;;;;;;;11.20;2.70;;;;;;;17.32;75.99;102073.31;5014211;28;20445;-71
2022/05/17 07:43:53;;;;;;;9.73;2.70;;;;;;;17.25;74.82;102067.28;4996516;28;20030;-72
2022/05/17 07:46:19;;;;;;;10.85;2.75;;;;;;;17.30;74.50;102070.09;5013187;28;20029;-72
2022/05/17 07:48:44;;;;;;;9.85;2.47;;;;;;;17.33;74.04;102053.22;4979999;28;20374;-73
2022/05/17 07:51:09;;;;;;;11.45;2.90;;;;;;;17.46;72.26;102063.66;4996353;28;20034;-73
2022/05/17 07:53:36;;;;;;;9.23;2.70;;;;;;;17.43;71.50;102061.44;4996383;28;20021;-72
2022/05/17 07:56:02;;;;;;;7.75;2.55;;;;;;;17.53;73.14;102071.50;5013931;28;20049;-73
2022/05/17 07:58:27;;;;;;;11.77;2.45;;;;;;;17.38;74.34;102071.72;4996665;28;20108;-70
2022/05/17 08:00:53;;;;;;;11.27;2.42;;;;;;;17.25;75.65;102075.09;4995524;28;20121;-73
2022/05/17 08:03:21;;;;;;;8.45;2.28;;;;;;;17.23;74.66;102069.25;4995940;28;20022;-71
2022/05/17 08:05:46;;;;;;;10.20;2.65;;;;;;;17.22;76.55;102074.72;5013788;28;20426;-72
2022/05/17 08:08:12;;;;;;;13.23;2.70;;;;;;;17.17;77.35;102071.88;4995998;28;20064;-71
2022/05/17 08:10:38;;;;;;;13.93;2.90;;;;;;;17.25;76.11;102076.91;4995997;28;20033;-71
2022/05/17 08:13:04;;;;;;;7.93;2.45;;;;;;;17.19;75.64;102075.09;5013627;28;20378;-72
2022/05/17 08:15:30;;;;;;;11.02;2.55;;;;;;;17.14;74.45;102079.09;4994794;28;20036;-72
2022/05/17 08:17:56;;;;;;;10.63;2.80;;;;;;;17.23;75.81;102081.53;4996177;28;20481;-71
2022/05/17 08:20:22;;;;;;;8.52;2.50;;;;;;;17.19;74.93;102081.13;5012931;28;20029;-71
2022/05/17 08:22:47;;;;;;;12.00;2.33;;;;;;;17.14;74.69;102078.31;5011565;28;20548;-72
2022/05/17 08:28:01;;;;;;;9.70;2.78;;;;;;;17.35;75.51;102077.34;5013705;28;20040;-72
2022/05/17 08:30:28;;;;;;;12.13;2.80;;;;;;;17.31;76.53;102070.88;5013794;28;20021;-71
2022/05/17 08:33:17;;;;;;;12.65;3.05;;;;;;;17.37;74.97;102070.88;4997126;28;20556;-71
2022/05/17 08:35:58;;;;;;;10.70;2.47;;;;;;;17.40;75.61;102069.69;5011398;28;20061;-72
2022/05/17 08:38:28;;;;;;;8.90;2.92;;;;;;;17.21;75.85;102073.09;4995323;28;20037;-72
2022/05/17 08:41:08;;;;;;;11.27;2.60;;;;;;;17.53;76.62;102059.25;4995081;28;20496;-71
2022/05/17 08:43:54;;;;;;;10.30;2.95;;;;;;;17.88;75.92;102081.75;5012975;28;20496;-71
2022/05/17 08:46:44;;;;;;;10.43;2.80;;;;;;;18.12;75.23;102091.56;5011612;28;20037;-71
2022/05/17 08:49:29;;;;;;;10.50;2.75;;;;;;;17.92;72.63;102091.59;5007195;28;20038;-72
2022/05/17 08:51:58;;;;;;;13.77;2.90;;;;;;;17.98;73.33;102095.22;5013210;28;20026;-71
2022/05/17 08:54:28;;;;;;;12.80;2.83;;;;;;;17.84;73.80;102091.00;5013039;28;20543;-71
2022/05/17 08:57:15;;;;;;;14.88;2.90;;;;;;;17.87;74.20;102088.81;4995348;28;20026;-72
2022/05/17 08:59:41;;;;;;;7.65;2.85;;;;;;;17.71;75.78;102092.59;5012881;28;20034;-71
2022/05/17 09:02:12;;;;;;;9.68;3.20;;;;;;;17.81;75.18;102094.84;4995360;28;20028;-71
2022/05/17 09:05:01;;;;;;;19.77;3.63;;;;;;;17.80;75.22;102091.41;5012740;28;20109;-71
2022/05/17 09:07:32;;;;;;;10.32;3.00;;;;;;;18.06;73.66;102089.75;4995177;28;20030;-73
2022/05/17 09:10:09;;;;;;;8.70;3.20;;;;;;;18.84;73.16;102096.75;5012807;28;20026;-72
2022/05/17 09:12:59;;;;;;;10.77;3.35;;;;;;;19.33;71.08;102089.97;5013062;28;20110;-72
2022/05/17 09:15:24;;;;;;;13.10;3.60;;;;;;;19.61;69.29;102094.81;4995566;28;20038;-72
2022/05/17 09:17:50;;;;;;;14.70;2.80;;;;;;;19.24;69.65;102097.31;5012953;28;20112;-72
2022/05/17 09:20:23;;;;;;;9.80;2.95;;;;;;;19.14;69.29;102089.13;4995997;28;20026;-71
2022/05/17 09:22:50;;;;;;;16.92;3.20;;;;;;;19.12;69.25;102094.56;5013200;28;20053;-71
2022/05/17 09:25:22;;;;;;;9.43;3.20;;;;;;;19.52;68.30;102094.28;5013345;28;20101;-72
2022/05/17 09:27:50;;;;;;;9.27;3.43;;;;;;;20.58;66.13;102089.78;5013246;28;20040;-72
2022/05/17 09:30:21;;;;;;;10.90;3.25;;;;;;;20.88;64.20;102095.03;5013075;28;20056;-72
2022/05/17 09:32:47;;;;;;;10.40;3.35;;;;;;;21.35;64.43;102089.91;5012944;28;20037;-72
2022/05/17 09:35:17;;;;;;;13.45;3.20;;;;;;;21.28;62.19;102094.44;4996216;28;20026;-71
2022/05/17 09:37:46;;;;;;;11.52;3.28;;;;;;;21.13;62.03;102096.72;5013552;28;20069;-73
2022/05/17 09:40:14;;;;;;;8.35;3.03;;;;;;;21.60;61.65;102091.53;5014143;28;20061;-70
2022/05/17 09:42:58;;;;;;;8.57;2.90;;;;;;;21.76;60.00;102095.31;5012824;28;20108;-71
2022/05/17 09:45:46;;;;;;;13.00;3.50;;;;;;;21.88;59.27;102093.47;5013897;28;20034;-71
2022/05/17 09:48:24;;;;;;;9.30;3.05;;;;;;;22.02;60.70;102089.56;5016237;28;20033;-71
2022/05/17 09:53:51;;;;;;;8.60;2.90;;;;;;;21.78;57.89;102095.84;5000576;28;20492;-72
2022/05/17 09:56:25;;;;;;;10.20;2.80;;;;;;;21.99;59.53;102087.38;5016415;28;20022;-72
2022/05/17 09:58:50;;;;;;;11.13;3.28;;;;;;;21.73;58.94;102079.97;5017224;28;20025;-71
2022/05/17 10:01:36;;;;;;;9.57;3.20;;;;;;;22.04;58.01;102084.06;4998693;28;20025;-71
2022/05/17 10:04:09;;;;;;;10.73;3.13;;;;;;;22.86;57.52;102078.50;5016108;28;20030;-72
2022/05/17 10:06:37;;;;;;;10.40;3.20;;;;;;;22.91;55.61;102073.34;5000535;28;20026;-75
2022/05/17 10:09:09;;;;;;;10.13;2.95;;;;;;;22.99;55.12;102053.72;5018747;28;20034;-79
2022/05/17 10:11:44;;;;;;;11.48;3.40;;;;;;;22.83;56.15;102068.44;5020679;28;20496;-73
2022/05/17 10:14:27;;;;;;;9.00;3.13;;;;;;;23.07;55.67;102063.84;5019270;28;20093;-72
2022/05/17 10:17:00;;;;;;;11.48;3.28;;;;;;;23.16;55.56;102065.06;5015674;28;20148;-72
2022/05/17 10:19:43;;;;;;;10.57;3.50;;;;;;;22.06;57.48;102069.63;5016063;28;20057;-75
2022/05/17 10:22:18;;;;;;;11.38;3.40;;;;;;;22.29;57.42;102066.16;5014986;28;20060;-72
2022/05/17 10:24:48;;;;;;;11.18;3.60;;;;;;;21.54;60.29;102056.41;4997387;28;20041;-72
2022/05/17 10:27:16;;;;;;;8.90;3.45;;;;;;;22.51;57.88;102066.31;5014532;28;20022;-73
2022/05/17 10:29:49;;;;;;;15.20;3.50;;;;;;;22.33;57.70;102053.34;5015149;28;20038;-74
2022/05/17 10:32:25;;;;;;;;;;;;;;;22.55;56.98;102057.94;5014984;28;20022;-72
2022/05/17 10:34:59;;;;;;;9.82;3.10;;;;;;;23.37;56.66;102050.34;4997659;28;20007;-72
2022/05/17 10:37:30;;;;;;;12.18;2.90;;;;;;;23.78;53.97;102044.84;4997377;28;20033;-72
2022/05/17 10:40:11;;;;;;;8.70;2.50;;;;;;;23.53;53.83;102047.91;5015192;28;20160;-72
2022/05/17 10:42:38;;;;;;;13.05;3.25;;;;;;;23.64;54.84;102047.00;4997262;28;20037;-71
2022/05/17 10:45:06;;;;;;;6.95;2.80;;;;;;;23.12;54.61;102047.34;5015542;28;20051;-72
2022/05/17 10:47:37;;;;;;;9.07;2.83;;;;;;;23.50;54.49;102051.84;5014441;28;20029;-72
2022/05/17 10:50:17;;;;;;;11.13;3.40;;;;;;;23.50;53.81;102051.03;5014898;28;20100;-70
2022/05/17 10:52:56;;;;;;;11.50;3.03;;;;;;;23.74;54.61;102044.56;5014880;28;20096;-71
2022/05/17 10:56:03;;;;;;;11.73;3.63;;;;;;;24.08;52.17;102037.31;5013335;28;20026;-71
2022/05/17 10:58:49;;;;;;;9.05;3.25;;;;;;;23.59;53.47;102039.84;5003532;28;20412;-71
2022/05/17 11:01:43;;;;;;;8.98;3.97;;;;;;;23.52;53.09;102046.34;4997432;28;20033;-72
2022/05/17 11:04:59;;;;;;;12.63;3.70;;;;;;;24.44;52.11;102024.50;5014697;28;20101;-72
2022/05/17 11:07:46;;;;;;;9.60;3.40;;;;;;;25.69;51.35;102025.09;4995264;28;20072;-72
2022/05/17 11:10:37;;;;;;;10.75;3.50;;;;;;;24.42;51.92;102028.41;5014943;28;20030;-71
2022/05/17 11:13:39;;;;;;;9.45;3.50;;;;;;;25.42;50.27;102018.09;4997118;28;20493;-72
2022/05/17 11:16:14;;;;;;;12.43;4.18;;;;;;;24.99;51.59;102017.28;4986380;28;20049;-72
2022/05/17 11:19:15;;;;;;;13.70;3.97;;;;;;;25.16;51.54;102004.72;4996730;28;20487;-72
2022/05/17 11:21:58;;;;;;;10.95;3.80;;;;;;;24.43;50.62;102003.63;4986918;28;20041;-70
2022/05/17 11:24:42;;;;;;;10.77;3.50;;;;;;;24.94;50.30;101986.28;4999026;28;20026;-72
2022/05/17 11:27:36;;;;;;;12.38;3.97;;;;;;;24.50;49.90;102006.84;5016540;28;20028;-70
2022/05/17 11:30:20;;;;;;;13.18;4.03;;;;;;;24.97;49.85;101993.75;5017414;28;20469;-72
2022/05/17 11:33:28;;;;;;;11.23;4.00;;;;;;;25.18;50.12;101999.19;5016028;28;20467;-72
2022/05/17 11:35:53;;;;;;;14.25;3.95;;;;;;;25.44;50.91;101989.53;4998823;28;20109;-73
2022/05/17 11:38:48;;;;;;;9.80;3.80;;;;;;;25.27;48.92;101976.50;5017114;28;20434;-72
2022/05/17 11:41:41;;;;;;;9.63;4.00;;;;;;;25.76;48.91;101975.38;4998876;28;20053;-71
2022/05/17 11:44:10;;;;;;;10.77;4.05;;;;;;;24.86;48.82;101984.16;5016464;28;20466;-72